Time;durP1;ratioP1;P1;durP2;ratioP2;P2;SDS_P1;SDS_P2;PMS_P1;PMS_P2;Temp;Humidity;BMP_temperature;BMP_pressure;BME280_temperature;BME280_humidity;BME280_pressure;Samples;Min_cycle;Max_cycle;Signal;HPM_P1;HPM_P2
2022/10/26 00:01:10;;;;;;;;;6.00;5.00;;;;;18.68;59.97;100610.16;4940930;28;46516;-61
2022/10/26 00:03:36;;;;;;;;;3.25;2.50;;;;;18.66;60.26;100611.16;4941363;28;45432;-61
2022/10/26 00:06:04;;;;;;;;;2.75;2.75;;;;;18.65;60.30;100612.97;4941279;28;45266;-61
2022/10/26 00:08:30;;;;;;;;;3.00;3.00;;;;;18.63;60.30;100606.84;4941092;28;45519;-61
2022/10/26 00:10:57;;;;;;;;;4.00;3.75;;;;;18.60;60.39;100600.81;4940699;28;52629;-61
2022/10/26 00:13:22;;;;;;;;;4.00;3.00;;;;;18.60;60.42;100606.16;4943143;28;45275;-61
2022/10/26 00:15:47;;;;;;;;;3.50;2.25;;;;;18.58;60.35;100600.91;4944363;28;45219;-61
2022/10/26 00:18:13;;;;;;;;;3.00;3.00;;;;;18.58;60.33;100611.56;4944341;28;50977;-62
2022/10/26 00:20:38;;;;;;;;;5.00;4.50;;;;;18.57;59.94;100616.97;4944227;28;45163;-61
2022/10/26 00:23:03;;;;;;;;;4.50;4.50;;;;;18.56;60.17;100613.41;4944585;28;45234;-61
2022/10/26 00:25:29;;;;;;;;;4.75;4.75;;;;;18.55;60.04;100602.84;4944394;28;45468;-61
2022/10/26 00:27:54;;;;;;;;;6.00;3.00;;;;;18.53;60.13;100600.28;4944487;28;45439;-61
2022/10/26 00:30:19;;;;;;;;;7.00;4.50;;;;;18.50;60.20;100603.97;4944035;28;45175;-61
2022/10/26 00:32:45;;;;;;;;;2.75;2.75;;;;;18.51;60.46;100600.38;4944395;28;45357;-61
2022/10/26 00:35:10;;;;;;;;;3.00;3.00;;;;;18.49;60.25;100596.91;4944376;28;45278;-61
2022/10/26 00:37:35;;;;;;;;;2.75;2.75;;;;;18.49;60.39;100596.06;4944314;28;45312;-61
2022/10/26 00:40:00;;;;;;;;;3.25;3.00;;;;;18.47;60.34;100603.25;4944035;28;46140;-61
2022/10/26 00:42:26;;;;;;;;;4.00;3.25;;;;;18.48;60.59;100597.84;4943996;28;45266;-61
2022/10/26 00:44:57;;;;;;;;;3.00;3.00;;;;;18.47;60.45;100601.44;4943946;28;45296;-61
2022/10/26 00:47:28;;;;;;;;;3.75;3.75;;;;;18.47;60.36;100598.78;4943800;28;45238;-61
2022/10/26 00:49:57;;;;;;;;;4.00;3.00;;;;;18.47;59.95;100606.75;4943783;28;45446;-61
2022/10/26 00:52:23;;;;;;;;;3.00;3.00;;;;;18.47;60.31;100606.75;4944080;28;45251;-61
2022/10/26 00:54:49;;;;;;;;;2.75;2.75;;;;;18.46;60.50;100598.84;4943982;28;45367;-61
2022/10/26 00:57:15;;;;;;;;;3.25;3.00;;;;;18.45;60.31;100599.78;4943659;28;45252;-61
2022/10/26 00:59:42;;;;;;;;;5.00;4.00;;;;;18.45;60.33;100598.00;4943810;28;46022;-62
2022/10/26 01:02:08;;;;;;;;;3.75;3.75;;;;;18.46;60.56;100609.50;4943593;28;45259;-61
2022/10/26 01:04:34;;;;;;;;;5.25;5.00;;;;;18.45;60.61;100605.97;4943764;28;45306;-61
2022/10/26 01:07:02;;;;;;;;;4.75;4.00;;;;;18.45;60.25;100621.94;4943627;28;45459;-61
2022/10/26 01:09:28;;;;;;;;;3.00;3.00;;;;;18.46;60.52;100625.47;4943575;28;45262;-61
2022/10/26 01:11:53;;;;;;;;;4.00;4.00;;;;;18.45;60.39;100640.56;4943740;28;45299;-61
2022/10/26 01:14:20;;;;;;;;;5.00;3.00;;;;;18.45;60.34;100651.22;4943956;28;45235;-61
2022/10/26 01:16:54;;;;;;;;;3.75;3.75;;;;;18.43;60.46;100649.56;4943583;28;45408;-61
2022/10/26 01:19:22;;;;;;;;;3.75;3.75;;;;;18.39;60.56;100656.81;4943343;28;45241;-61
2022/10/26 01:22:03;;;;;;;;;5.25;3.25;;;;;18.39;60.59;100655.94;4943455;28;45311;-61
2022/10/26 01:24:45;;;;;;;;;3.50;3.00;;;;;18.38;60.57;100660.41;4931350;28;45584;-61
2022/10/26 01:27:42;;;;;;;;;4.25;4.25;;;;;18.34;60.67;100667.69;4943277;28;45237;-61
2022/10/26 01:30:15;;;;;;;;;5.75;4.00;;;;;18.29;60.92;100663.53;4942972;28;46219;-61
2022/10/26 01:32:46;;;;;;;;;4.00;4.00;;;;;18.29;60.99;100664.38;4943543;28;45203;-61
2022/10/26 01:35:18;;;;;;;;;3.50;3.50;;;;;18.30;60.33;100659.91;4943446;28;45388;-61
2022/10/26 01:37:53;;;;;;;;;6.00;3.25;;;;;18.29;61.16;100666.19;4943400;28;45311;-61
2022/10/26 01:40:28;;;;;;;;;5.25;3.50;;;;;18.27;61.10;100662.72;4943017;28;46235;-61
2022/10/26 01:42:58;;;;;;;;;4.75;4.75;;;;;18.24;60.90;100650.44;4943247;28;45308;-61
2022/10/26 01:45:24;;;;;;;;;5.00;3.50;;;;;18.26;60.75;100658.34;4943360;28;45282;-61
2022/10/26 01:47:53;;;;;;;;;3.00;3.00;;;;;18.25;61.10;100653.94;4942887;28;45503;-61
2022/10/26 01:50:19;;;;;;;;;3.75;3.50;;;;;18.24;61.04;100653.09;4943164;28;46179;-61
2022/10/26 01:52:48;;;;;;;;;3.75;3.75;;;;;18.22;60.87;100667.41;4943007;28;45385;-61
2022/10/26 01:55:44;;;;;;;;;5.75;5.00;;;;;18.23;61.10;100675.31;4943356;28;45286;-61
2022/10/26 01:58:46;;;;;;;;;6.00;5.00;;;;;18.21;61.08;100674.50;4942535;28;45240;-61
2022/10/26 02:01:30;;;;;;;;;4.25;3.25;;;;;18.20;61.19;100672.81;4942520;28;45537;-61
2022/10/26 02:04:14;;;;;;;;;5.00;4.00;;;;;18.21;61.38;100678.97;4942927;28;45492;-61
2022/10/26 02:06:51;;;;;;;;;4.00;3.00;;;;;18.14;60.97;100668.63;4943029;28;45441;-61
2022/10/26 02:09:19;;;;;;;;;4.25;4.00;;;;;18.14;61.68;100670.44;4942785;28;45321;-61
2022/10/26 02:11:49;;;;;;;;;3.50;2.75;;;;;18.12;61.03;100686.44;4942556;28;45302;-61
2022/10/26 02:14:48;;;;;;;;;4.00;4.00;;;;;18.14;61.41;100681.91;4942681;28;45279;-61
2022/10/26 02:17:30;;;;;;;;;4.50;4.50;;;;;18.13;61.27;100690.81;4942702;28;45274;-61
2022/10/26 02:20:03;;;;;;;;;5.00;3.75;;;;;18.10;61.55;100687.44;4942593;28;45538;-61
2022/10/26 02:22:44;;;;;;;;;2.75;2.75;;;;;18.10;61.70;100687.44;4942506;28;45167;-61
2022/10/26 02:25:27;;;;;;;;;6.00;6.00;;;;;18.09;61.70;100678.63;4942553;28;45323;-61
2022/10/26 02:27:58;;;;;;;;;5.00;3.75;;;;;18.10;61.69;100677.69;4941427;28;45266;-61
2022/10/26 02:30:24;;;;;;;;;6.75;2.75;;;;;18.11;61.60;100676.75;4942317;28;45389;-61
2022/10/26 02:32:53;;;;;;;;;7.75;5.50;;;;;18.12;61.47;100683.78;4942564;28;45323;-61
2022/10/26 02:35:24;;;;;;;;;4.75;4.75;;;;;18.14;61.56;100681.91;4942311;28;45256;-61
2022/10/26 02:37:52;;;;;;;;;5.25;4.25;;;;;18.11;61.62;100676.75;4942636;28;45277;-61
2022/10/26 02:40:24;;;;;;;;;5.50;4.75;;;;;18.12;61.47;100682.94;4940877;28;45274;-61
2022/10/26 02:42:51;;;;;;;;;4.75;3.00;;;;;18.15;61.39;100681.00;4942199;28;47365;-62
2022/10/26 02:45:22;;;;;;;;;3.00;3.00;;;;;18.12;61.69;100681.13;4942000;28;45376;-61
2022/10/26 02:47:48;;;;;;;;;5.25;5.25;;;;;18.13;61.41;100690.81;4942185;28;45484;-61
2022/10/26 02:50:13;;;;;;;;;3.00;3.00;;;;;18.16;61.66;100696.03;4942247;28;45546;-61
2022/10/26 02:52:49;;;;;;;;;4.00;3.00;;;;;18.10;61.57;100698.09;4942115;28;45302;-62
2022/10/26 02:55:20;;;;;;;;;6.50;4.00;;;;;18.16;61.50;100700.47;4942436;28;45470;-61
2022/10/26 02:57:51;;;;;;;;;6.50;5.50;;;;;18.14;61.82;100700.53;4941809;28;45155;-62
2022/10/26 03:00:18;;;;;;;;;5.25;5.25;;;;;18.12;61.68;100694.41;4942010;28;45334;-61
2022/10/26 03:02:49;;;;;;;;;4.25;4.00;;;;;18.13;62.08;100690.81;4941776;28;46189;-61
2022/10/26 03:05:23;;;;;;;;;5.75;5.00;;;;;18.10;62.14;100687.44;4942291;28;45336;-62
2022/10/26 03:07:48;;;;;;;;;5.00;4.00;;;;;18.13;61.73;100687.31;4942156;28;45235;-62
2022/10/26 03:10:14;;;;;;;;;4.75;4.00;;;;;18.16;61.92;100684.50;4941976;28;45279;-62
2022/10/26 03:12:39;;;;;;;;;4.75;4.00;;;;;18.17;61.74;100683.56;4941645;28;46281;-62
2022/10/26 03:15:05;;;;;;;;;3.00;3.00;;;;;18.15;61.72;100686.31;4941880;28;45511;-62
2022/10/26 03:17:30;;;;;;;;;3.00;3.00;;;;;18.14;61.78;100676.59;4941938;28;45369;-61
2022/10/26 03:19:56;;;;;;;;;2.50;2.50;;;;;18.17;61.74;100692.41;4941723;28;48281;-61
2022/10/26 03:22:22;;;;;;;;;4.00;3.00;;;;;18.19;61.96;100692.34;4941504;28;46647;-61
2022/10/26 03:24:47;;;;;;;;;5.00;4.00;;;;;18.22;61.97;100691.34;4941826;28;45455;-61
2022/10/26 03:27:13;;;;;;;;;4.50;3.00;;;;;18.22;61.77;100692.19;4941672;28;45262;-61
2022/10/26 03:29:38;;;;;;;;;3.50;3.50;;;;;18.25;62.10;100704.47;4941568;28;45393;-61
2022/10/26 03:32:04;;;;;;;;;4.50;3.25;;;;;18.24;62.13;100713.38;4941426;28;45565;-61
2022/10/26 03:34:29;;;;;;;;;4.00;4.00;;;;;18.26;61.87;100724.84;4941847;28;45333;-61
2022/10/26 03:36:54;;;;;;;;;2.75;2.75;;;;;18.26;61.74;100724.84;4941550;28;45294;-61
2022/10/26 03:39:20;;;;;;;;;5.00;4.50;;;;;18.25;62.06;100718.66;4940014;28;51875;-61
2022/10/26 03:41:46;;;;;;;;;4.75;3.25;;;;;18.28;61.68;100717.66;4941285;28;46257;-61
2022/10/26 03:44:12;;;;;;;;;4.25;2.50;;;;;18.23;62.19;100720.53;4941635;28;45441;-61
2022/10/26 03:46:37;;;;;;;;;5.00;5.00;;;;;18.26;61.74;100723.03;4941294;28;45270;-61
2022/10/26 03:49:02;;;;;;;;;5.50;4.50;;;;;18.24;62.25;100721.38;4944002;28;45554;-61
2022/10/26 03:51:28;;;;;;;;;3.50;3.00;;;;;18.26;62.08;100719.50;4943684;28;45222;-61
2022/10/26 03:53:53;;;;;;;;;6.25;4.00;;;;;18.25;62.12;100742.59;4943650;28;45433;-61
2022/10/26 03:56:18;;;;;;;;;4.00;3.00;;;;;18.25;61.85;100750.56;4944849;28;45171;-61
2022/10/26 03:58:43;;;;;;;;;5.00;5.00;;;;;18.27;61.75;100753.16;4944532;28;45520;-61
2022/10/26 04:01:09;;;;;;;;;4.25;4.25;;;;;18.29;61.80;100762.78;4944380;28;45418;-61
2022/10/26 04:03:34;;;;;;;;;7.25;3.75;;;;;18.29;62.03;100769.91;4944783;28;45207;-61
2022/10/26 04:06:00;;;;;;;;;6.00;4.00;;;;;18.28;61.77;100768.19;4945030;28;45175;-61
2022/10/26 04:08:26;;;;;;;;;5.00;4.00;;;;;18.28;61.52;100782.34;4944623;28;45497;-61
2022/10/26 04:10:51;;;;;;;;;4.00;4.00;;;;;18.27;61.87;100780.59;4943070;28;48140;-61
2022/10/26 04:13:16;;;;;;;;;5.50;4.00;;;;;18.22;61.89;100773.78;4943357;28;45314;-61
2022/10/26 04:15:42;;;;;;;;;4.00;4.00;;;;;18.21;61.85;100767.59;4943117;28;45385;-62
2022/10/26 04:18:08;;;;;;;;;5.00;3.50;;;;;18.19;62.12;100772.97;4944586;28;45534;-61
2022/10/26 04:20:35;;;;;;;;;5.50;5.50;;;;;18.16;62.21;100775.78;4944337;28;45449;-61
2022/10/26 04:23:03;;;;;;;;;4.00;4.00;;;;;18.19;62.22;100785.44;4944459;28;45401;-61
2022/10/26 04:25:30;;;;;;;;;3.25;3.00;;;;;18.17;62.23;100792.59;4944376;28;45443;-61
2022/10/26 04:27:56;;;;;;;;;4.00;4.00;;;;;18.16;62.25;100799.72;4944306;28;45414;-61
2022/10/26 04:30:21;;;;;;;;;3.75;2.75;;;;;18.13;62.04;100799.84;4944127;28;45304;-61
2022/10/26 04:32:47;;;;;;;;;4.00;4.00;;;;;18.15;62.16;100805.97;4944389;28;45332;-61
2022/10/26 04:35:12;;;;;;;;;4.25;4.00;;;;;18.15;61.91;100810.41;4944401;28;45576;-61
2022/10/26 04:37:37;;;;;;;;;3.50;3.50;;;;;18.14;62.03;100814.03;4943914;28;52381;-61
2022/10/26 04:40:03;;;;;;;;;3.00;2.50;;;;;18.08;61.94;100807.19;4944054;28;46307;-61
2022/10/26 04:42:32;;;;;;;;;4.25;3.50;;;;;18.10;62.01;100815.06;4944026;28;45352;-61
2022/10/26 04:44:58;;;;;;;;;4.50;4.00;;;;;18.10;62.03;100821.28;4943840;28;45289;-62
2022/10/26 04:47:23;;;;;;;;;3.00;3.00;;;;;18.09;62.15;100827.53;4943877;28;45377;-61
2022/10/26 04:49:49;;;;;;;;;6.00;5.00;;;;;18.09;61.85;100832.00;4943921;28;49229;-61
2022/10/26 04:52:14;;;;;;;;;3.50;3.50;;;;;18.06;62.23;100832.97;4943880;28;53379;-61
2022/10/26 04:54:39;;;;;;;;;5.25;3.25;;;;;18.06;62.02;100840.94;4944161;28;45235;-61
2022/10/26 04:57:05;;;;;;;;;3.75;2.50;;;;;18.07;62.25;100841.81;4943854;28;45445;-61
2022/10/26 04:59:30;;;;;;;;;6.00;4.75;;;;;18.07;61.87;100844.47;4942741;28;45535;-61
2022/10/26 05:01:55;;;;;;;;;4.00;4.00;;;;;18.07;62.03;100850.66;4943710;28;45377;-61
2022/10/26 05:04:20;;;;;;;;;6.00;5.25;;;;;18.07;61.84;100852.44;4944054;28;45235;-61
2022/10/26 05:06:46;;;;;;;;;4.75;4.75;;;;;18.06;62.04;100856.88;4943487;28;52405;-61
2022/10/26 05:09:11;;;;;;;;;7.50;6.75;;;;;18.05;61.93;100863.16;4943732;28;45243;-65
2022/10/26 05:11:36;;;;;;;;;6.25;6.25;;;;;18.04;61.88;100874.72;4943468;28;52004;-61
2022/10/26 05:14:02;;;;;;;;;8.00;6.75;;;;;18.03;62.08;100878.31;4943453;28;49659;-61
2022/10/26 05:16:27;;;;;;;;;11.00;8.50;;;;;18.03;62.14;100888.94;4943502;28;45251;-61
2022/10/26 05:18:52;;;;;;;;;7.25;6.00;;;;;18.03;62.17;100894.25;4943291;28;48179;-61
2022/10/26 05:21:20;;;;;;;;;10.75;10.00;;;;;18.02;62.01;100892.53;4943185;28;55918;-61
2022/10/26 05:23:52;;;;;;;;;10.75;10.75;;;;;18.00;61.81;100889.09;4942292;28;45525;-61
2022/10/26 05:26:18;;;;;;;;;11.50;9.00;;;;;17.99;61.90;100892.69;4943470;28;45322;-61
2022/10/26 05:28:44;;;;;;;;;8.50;8.50;;;;;17.96;62.11;100895.44;4943197;28;45319;-61
2022/10/26 05:31:09;;;;;;;;;10.00;10.00;;;;;17.95;62.07;100891.94;4941858;28;45338;-61
2022/10/26 05:33:34;;;;;;;;;6.25;5.50;;;;;17.95;62.14;100899.03;4943736;28;45464;-61
2022/10/26 05:36:00;;;;;;;;;3.75;3.75;;;;;17.92;62.15;100901.78;4943535;28;48231;-61
2022/10/26 05:38:25;;;;;;;;;6.50;6.00;;;;;17.93;62.06;100906.19;4943175;28;45994;-61
2022/10/26 05:40:52;;;;;;;;;5.00;5.00;;;;;17.92;62.05;100912.44;4943322;28;45281;-61
2022/10/26 05:43:19;;;;;;;;;5.25;4.00;;;;;17.91;62.22;100916.00;4943473;28;45239;-61
2022/10/26 05:45:44;;;;;;;;;4.00;4.00;;;;;17.89;61.97;100913.44;4943093;28;45187;-61
2022/10/26 05:48:10;;;;;;;;;3.00;3.00;;;;;17.87;62.09;100910.84;4942913;28;46178;-61
2022/10/26 05:50:35;;;;;;;;;6.00;5.00;;;;;17.86;61.88;100927.72;4943283;28;45167;-61
2022/10/26 05:53:01;;;;;;;;;5.75;3.00;;;;;17.84;61.92;100936.69;4943142;28;45278;-61
2022/10/26 05:55:26;;;;;;;;;8.25;8.25;;;;;17.83;62.06;100935.78;4943047;28;45493;-61
2022/10/26 05:57:52;;;;;;;;;7.00;5.00;;;;;17.82;62.11;100942.06;4942813;28;45732;-61
2022/10/26 06:00:23;;;;;;;;;5.00;5.00;;;;;17.81;62.21;100943.00;4941863;28;45841;-61
2022/10/26 06:02:51;;;;;;;;;6.00;5.50;;;;;17.80;62.17;100953.69;4942922;28;45266;-61
2022/10/26 06:05:22;;;;;;;;;6.00;5.50;;;;;17.77;62.26;100959.97;4942988;28;45323;-61
2022/10/26 06:07:48;;;;;;;;;4.75;4.00;;;;;17.75;62.15;100943.25;4942679;28;47130;-61
2022/10/26 06:10:14;;;;;;;;;5.00;4.00;;;;;17.75;62.07;100947.66;4942388;28;45485;-61
2022/10/26 06:12:40;;;;;;;;;4.75;4.25;;;;;17.71;62.28;100953.13;4942743;28;45334;-61
2022/10/26 06:15:06;;;;;;;;;5.75;4.75;;;;;17.74;62.18;100956.59;4942689;28;45345;-61
2022/10/26 06:17:43;;;;;;;;;4.00;3.75;;;;;17.71;62.18;100952.28;4942600;28;45396;-61
2022/10/26 06:20:31;;;;;;;;;4.00;4.00;;;;;17.70;62.08;100948.72;4942713;28;45342;-61
2022/10/26 06:23:23;;;;;;;;;4.75;4.75;;;;;17.65;62.19;100947.22;4932970;28;45164;-60
2022/10/26 06:26:04;;;;;;;;;6.00;6.00;;;;;17.67;62.09;100961.28;4942430;28;45345;-60
2022/10/26 06:28:32;;;;;;;;;3.50;3.00;;;;;17.64;62.12;100956.94;4942430;28;45477;-60
2022/10/26 06:30:57;;;;;;;;;6.00;5.25;;;;;17.64;62.18;100964.06;4942326;28;45386;-60
2022/10/26 06:33:24;;;;;;;;;3.50;3.25;;;;;17.61;61.95;100959.75;4942549;28;45287;-60
2022/10/26 06:36:16;;;;;;;;;5.00;3.00;;;;;17.58;62.20;100957.19;4942657;28;45440;-62
2022/10/26 06:38:43;;;;;;;;;4.25;3.00;;;;;17.56;62.31;100967.03;4942177;28;45488;-61
2022/10/26 06:41:13;;;;;;;;;4.00;4.00;;;;;17.52;62.21;100979.56;4942177;28;45253;-62
2022/10/26 06:43:39;;;;;;;;;3.00;3.00;;;;;17.49;62.36;100998.28;4942459;28;45267;-61
2022/10/26 06:46:20;;;;;;;;;3.50;3.00;;;;;17.47;62.62;100994.84;4940756;28;45204;-61
2022/10/26 06:49:12;;;;;;;;;4.50;3.00;;;;;17.41;62.47;100987.09;4942182;28;45325;-61
2022/10/26 06:51:46;;;;;;;;;7.75;5.00;;;;;17.36;62.64;100999.69;4942075;28;45326;-61
2022/10/26 06:54:29;;;;;;;;;6.00;4.75;;;;;17.33;62.54;101007.78;4942228;28;45321;-62
2022/10/26 06:56:55;;;;;;;;;5.50;5.50;;;;;17.31;62.58;101007.84;4942045;28;45240;-61
2022/10/26 06:59:41;;;;;;;;;8.00;7.00;;;;;17.32;62.44;101014.00;4941771;28;45500;-61
2022/10/26 07:02:08;;;;;;;;;7.75;6.75;;;;;17.28;62.68;101007.09;4942111;28;45390;-61
2022/10/26 07:04:34;;;;;;;;;5.75;5.50;;;;;17.29;62.60;101019.44;4942038;28;45354;-61
2022/10/26 07:06:59;;;;;;;;;5.75;5.75;;;;;17.27;62.60;101027.47;4942081;28;45319;-61
2022/10/26 07:09:24;;;;;;;;;2.50;1.00;;;;;17.27;62.41;101034.56;4942048;28;46388;-61
2022/10/26 07:11:50;;;;;;;;;6.00;4.75;;;;;17.24;62.63;101034.69;4941723;28;49506;-61
2022/10/26 07:14:15;;;;;;;;;4.25;4.25;;;;;17.25;62.90;101041.75;4940866;28;45321;-61
2022/10/26 07:16:40;;;;;;;;;5.00;5.00;;;;;17.21;62.85;101044.50;4941841;28;45264;-61
2022/10/26 07:19:06;;;;;;;;;7.75;7.75;;;;;17.18;62.80;101055.25;4941878;28;47262;-61
2022/10/26 07:21:31;;;;;;;;;4.50;4.50;;;;;17.11;62.85;101051.06;4941809;28;45198;-61
2022/10/26 07:23:56;;;;;;;;;10.50;6.00;;;;;17.18;62.97;101059.66;4941142;28;45274;-61
2022/10/26 07:26:24;;;;;;;;;5.00;5.00;;;;;17.17;62.78;101063.28;4941471;28;50130;-61
2022/10/26 07:28:50;;;;;;;;;11.25;9.75;;;;;17.16;63.10;101070.34;4940436;28;46148;-61
2022/10/26 07:31:15;;;;;;;;;6.25;5.00;;;;;17.14;63.27;101066.03;4941619;28;45490;-61
2022/10/26 07:33:41;;;;;;;;;6.75;4.25;;;;;17.13;62.90;101067.81;4941454;28;48324;-61
2022/10/26 07:36:09;;;;;;;;;7.25;3.00;;;;;17.17;62.62;101082.72;4941655;28;45306;-61
2022/10/26 07:38:35;;;;;;;;;7.25;5.75;;;;;17.14;62.70;101090.78;4941300;28;46301;-60
2022/10/26 07:41:01;;;;;;;;;3.00;3.00;;;;;17.16;62.91;101093.41;4941271;28;45280;-60
2022/10/26 07:43:26;;;;;;;;;4.25;4.25;;;;;17.18;62.96;101087.09;4941646;28;45488;-60
2022/10/26 07:45:52;;;;;;;;;7.75;6.00;;;;;17.18;62.92;101100.38;4941163;28;48366;-62
2022/10/26 07:48:17;;;;;;;;;8.50;6.00;;;;;17.18;62.96;101097.72;4941231;28;46001;-62
2022/10/26 07:50:42;;;;;;;;;7.00;5.00;;;;;17.24;63.38;101107.25;4941568;28;45227;-60
2022/10/26 07:53:08;;;;;;;;;8.75;7.50;;;;;17.25;62.99;101100.16;4941541;28;45308;-62
2022/10/26 07:55:33;;;;;;;;;7.75;5.00;;;;;17.24;63.20;101115.22;4941391;28;45305;-62
2022/10/26 07:57:58;;;;;;;;;6.25;5.00;;;;;17.24;63.05;101117.88;4941114;28;46127;-63
2022/10/26 08:00:24;;;;;;;;;5.00;4.00;;;;;17.27;63.43;101114.22;4941177;28;45379;-62
2022/10/26 08:02:50;;;;;;;;;6.75;6.00;;;;;17.30;62.95;101122.97;4941473;28;45311;-62
2022/10/26 08:05:16;;;;;;;;;5.00;5.00;;;;;17.28;63.17;101110.66;4941395;28;45619;-62
2022/10/26 08:07:45;;;;;;;;;6.25;4.75;;;;;17.30;63.15;101119.44;4939849;28;45641;-62
2022/10/26 08:10:11;;;;;;;;;7.50;6.50;;;;;17.34;63.30;101123.72;4941287;28;45294;-62
2022/10/26 08:12:37;;;;;;;;;5.00;5.00;;;;;17.36;63.21;101132.50;4941021;28;45227;-62
2022/10/26 08:15:03;;;;;;;;;6.00;6.00;;;;;17.42;63.35;101136.72;4940960;28;45621;-62
2022/10/26 08:17:28;;;;;;;;;9.00;8.00;;;;;17.44;63.48;101122.44;4941054;28;45463;-62
2022/10/26 08:19:54;;;;;;;;;6.00;4.25;;;;;17.47;63.28;101143.59;4941068;28;46370;-62
2022/10/26 08:22:19;;;;;;;;;6.75;5.25;;;;;17.49;63.14;101138.22;4941113;28;45216;-62
2022/10/26 08:24:45;;;;;;;;;6.75;4.25;;;;;17.58;63.18;101152.97;4941188;28;45543;-62
2022/10/26 08:27:12;;;;;;;;;9.50;5.50;;;;;17.60;63.23;101154.66;4940773;28;46612;-62
2022/10/26 08:29:38;;;;;;;;;6.25;5.00;;;;;17.63;63.34;101158.97;4940726;28;45356;-62
2022/10/26 08:32:03;;;;;;;;;6.75;5.50;;;;;17.72;63.24;101153.31;4941176;28;45310;-62
2022/10/26 08:34:28;;;;;;;;;4.25;4.25;;;;;17.72;63.28;101150.66;4942873;28;45452;-61
2022/10/26 08:36:54;;;;;;;;;7.50;7.50;;;;;17.80;63.36;101159.22;4944071;28;45362;-61
2022/10/26 08:39:19;;;;;;;;;3.75;3.75;;;;;17.86;63.29;101158.97;4944093;28;51713;-61
2022/10/26 08:41:51;;;;;;;;;6.25;5.00;;;;;17.95;63.65;101159.56;4944166;28;45298;-61
2022/10/26 08:44:23;;;;;;;;;7.75;7.00;;;;;18.00;63.32;101157.63;4944166;28;45251;-61
2022/10/26 08:46:54;;;;;;;;;7.75;7.50;;;;;18.06;63.09;101170.66;4943705;28;46510;-61
2022/10/26 08:49:25;;;;;;;;;7.50;6.00;;;;;18.14;63.00;101173.91;4944167;28;45332;-62
2022/10/26 08:51:56;;;;;;;;;5.00;4.00;;;;;18.23;63.03;101167.34;4944053;28;45292;-62
2022/10/26 08:54:35;;;;;;;;;5.50;5.00;;;;;18.29;63.12;101160.94;4944067;28;45248;-61
2022/10/26 08:57:12;;;;;;;;;8.25;6.00;;;;;18.35;63.32;101168.66;4943822;28;46268;-61
2022/10/26 08:59:45;;;;;;;;;4.50;3.25;;;;;18.41;62.99;101173.72;4943863;28;45389;-61
2022/10/26 09:02:15;;;;;;;;;5.00;5.00;;;;;18.46;63.02;101179.72;4944051;28;45290;-61
2022/10/26 09:04:42;;;;;;;;;5.50;4.00;;;;;18.57;62.94;101183.78;4943785;28;45180;-61
2022/10/26 09:07:13;;;;;;;;;4.75;4.00;;;;;18.61;62.39;101188.88;4943669;28;45465;-61
2022/10/26 09:09:45;;;;;;;;;7.00;3.75;;;;;18.71;62.95;101185.88;4943571;28;45334;-61
2022/10/26 09:12:41;;;;;;;;;8.50;4.25;;;;;18.82;62.81;101191.59;4943718;28;45219;-61
2022/10/26 09:15:06;;;;;;;;;5.50;4.00;;;;;18.89;62.92;101194.88;4943558;28;45557;-61
2022/10/26 09:17:31;;;;;;;;;4.00;4.00;;;;;18.98;63.23;101202.50;4943413;28;45513;-61
2022/10/26 09:20:17;;;;;;;;;6.00;5.25;;;;;19.08;62.81;101206.53;4943836;28;45314;-61
2022/10/26 09:22:59;;;;;;;;;5.50;4.00;;;;;19.15;62.97;101212.44;4930816;28;45377;-61
2022/10/26 09:25:30;;;;;;;;;4.75;3.50;;;;;19.24;62.92;101213.84;4943483;28;45309;-61
2022/10/26 09:28:00;;;;;;;;;5.00;3.25;;;;;19.29;62.77;101209.19;4942325;28;45358;-61
2022/10/26 09:30:25;;;;;;;;;4.00;4.00;;;;;19.40;62.19;101209.59;4943124;28;45277;-61
2022/10/26 09:33:14;;;;;;;;;4.50;4.50;;;;;19.52;62.24;101204.63;4942276;28;45327;-61
2022/10/26 09:35:45;;;;;;;;;4.50;3.50;;;;;19.62;62.29;101198.84;4943370;28;45335;-61
2022/10/26 09:38:55;;;;;;;;;6.75;4.00;;;;;19.69;62.08;101195.91;4943117;28;45321;-61
2022/10/26 09:41:28;;;;;;;;;5.25;4.00;;;;;19.83;62.33;101212.16;4943044;28;45353;-61
2022/10/26 09:44:09;;;;;;;;;5.75;5.50;;;;;19.94;61.62;101217.88;4943432;28;45454;-61
2022/10/26 09:46:55;;;;;;;;;3.75;3.00;;;;;20.04;61.99;101217.47;4942110;28;45614;-61
2022/10/26 09:49:30;;;;;;;;;4.75;4.00;;;;;20.14;61.73;101219.59;4943086;28;47317;-61
2022/10/26 09:51:55;;;;;;;;;6.25;4.75;;;;;20.24;61.95;101219.19;4943184;28;45366;-61
2022/10/26 09:54:21;;;;;;;;;4.75;4.75;;;;;20.32;61.69;101221.50;4943224;28;45306;-62
2022/10/26 09:56:52;;;;;;;;;5.25;3.00;;;;;20.39;61.72;101217.56;4942981;28;45586;-61
2022/10/26 09:59:21;;;;;;;;;4.25;4.00;;;;;20.51;61.72;101234.81;4942773;28;45405;-61
2022/10/26 10:01:47;;;;;;;;;20.50;17.25;;;;;20.61;61.35;101228.94;4942819;28;45342;-61
2022/10/26 10:04:12;;;;;;;;;8.50;8.50;;;;;20.73;61.49;101240.03;4942882;28;45963;-61
2022/10/26 10:06:42;;;;;;;;;3.00;3.00;;;;;20.83;61.34;101248.41;4943016;28;45245;-61
2022/10/26 10:09:23;;;;;;;;;3.00;3.00;;;;;20.89;60.91;101261.47;4942780;28;46443;-61
2022/10/26 10:11:56;;;;;;;;;6.75;2.75;;;;;20.95;61.14;101261.16;4942639;28;45331;-62
2022/10/26 10:14:25;;;;;;;;;3.00;2.00;;;;;21.03;61.00;101267.00;4942795;28;45337;-61
2022/10/26 10:17:00;;;;;;;;;3.00;3.00;;;;;21.15;60.54;101260.19;4942793;28;45500;-61
2022/10/26 10:19:29;;;;;;;;;4.75;4.00;;;;;21.22;60.43;101264.28;4942682;28;46190;-62
2022/10/26 10:21:57;;;;;;;;;3.75;2.75;;;;;21.35;60.31;101275.19;4942471;28;45264;-61
2022/10/26 10:24:31;;;;;;;;;1.50;1.50;;;;;21.41;60.85;101274.03;4943041;28;45318;-61
2022/10/26 10:27:23;;;;;;;;;1.75;1.75;;;;;21.53;60.58;101275.19;4942314;28;45268;-61
2022/10/26 10:29:51;;;;;;;;;3.00;3.00;;;;;21.59;60.17;101275.75;4942048;28;46483;-61
2022/10/26 10:32:21;;;;;;;;;4.00;3.75;;;;;21.68;60.27;101278.91;4942393;28;45266;-61
2022/10/26 10:34:49;;;;;;;;;6.00;3.50;;;;;21.72;59.64;101284.03;4942692;28;45204;-61
2022/10/26 10:37:26;;;;;;;;;6.25;3.50;;;;;21.83;59.66;101286.13;4942709;28;45235;-61
2022/10/26 10:39:57;;;;;;;;;4.75;4.00;;;;;21.91;59.72;101286.59;4942248;28;46081;-61
2022/10/26 10:42:29;;;;;;;;;3.25;2.25;;;;;22.00;59.73;101292.38;4942209;28;45234;-61
2022/10/26 10:44:56;;;;;;;;;5.50;5.50;;;;;22.11;59.49;101294.47;4942265;28;45479;-61
2022/10/26 10:47:30;;;;;;;;;4.50;4.25;;;;;22.21;59.28;101285.00;4942078;28;45460;-61
2022/10/26 10:49:56;;;;;;;;;6.00;4.25;;;;;;;;4942078;28;45332;-61
2022/10/26 10:52:25;;;;;;;;;4.50;2.00;;;;;22.37;59.30;101285.06;4942411;28;45309;-62
2022/10/26 10:55:00;;;;;;;;;2.00;1.25;;;;;22.48;59.25;101292.50;4942623;28;45765;-61
2022/10/26 10:57:45;;;;;;;;;3.50;2.00;;;;;22.54;59.32;101313.56;4941895;28;45286;-60
2022/10/26 11:00:11;;;;;;;;;4.75;2.50;;;;;22.60;59.17;101290.94;4930737;28;45356;-61
2022/10/26 11:02:55;;;;;;;;;4.00;3.00;;;;;22.70;58.60;101301.06;4941959;28;45319;-61
2022/10/26 11:05:38;;;;;;;;;0.50;0.50;;;;;22.78;58.89;101295.28;4942296;28;45455;-60
2022/10/26 11:08:19;;;;;;;;;6.25;4.75;;;;;22.90;58.78;101299.03;4940638;28;45396;-60
2022/10/26 11:10:59;;;;;;;;;2.00;2.00;;;;;22.99;58.55;101303.91;4941578;28;45334;-61
2022/10/26 11:13:38;;;;;;;;;3.00;2.75;;;;;23.04;58.51;101311.66;4941966;28;45232;-61
2022/10/26 11:16:15;;;;;;;;;4.25;2.75;;;;;23.08;58.50;101299.81;4941721;28;45270;-60
2022/10/26 11:19:03;;;;;;;;;3.75;1.75;;;;;23.18;58.39;101308.19;4941691;28;45298;-60
2022/10/26 11:21:33;;;;;;;;;1.25;1.00;;;;;23.27;58.09;101306.78;4930832;28;47137;-61
2022/10/26 11:24:21;;;;;;;;;5.00;1.75;;;;;23.32;58.30;101310.06;4941442;28;45465;-60
2022/10/26 11:26:54;;;;;;;;;2.00;2.00;;;;;23.33;58.20;101314.47;4941560;28;45378;-61
2022/10/26 11:29:29;;;;;;;;;2.00;2.00;;;;;23.43;57.66;101312.97;4940324;28;45435;-60
2022/10/26 11:32:21;;;;;;;;;3.25;3.00;;;;;23.53;57.66;101307.94;4941451;28;46203;-60
2022/10/26 11:35:13;;;;;;;;;3.00;2.00;;;;;23.60;57.41;101319.16;4937864;28;45497;-60
2022/10/26 11:37:47;;;;;;;;;3.75;2.75;;;;;23.67;57.35;101310.66;4938693;28;45255;-61